createdAt,value
2023-02-27T00:00:56.291Z,0.89
2023-02-27T00:04:00.403Z,0.87
2023-02-27T00:07:03.342Z,0.88
2023-02-27T00:10:07.943Z,0.90
2023-02-27T00:13:10.828Z,0.88
2023-02-27T00:16:14.116Z,0.80
2023-02-27T00:19:16.918Z,0.79
2023-02-27T00:22:19.694Z,0.82
2023-02-27T00:25:22.581Z,0.84
2023-02-27T00:28:25.436Z,0.82
2023-02-27T00:31:28.723Z,0.82
2023-02-27T00:34:31.824Z,0.70
2023-02-27T00:37:34.872Z,0.82
2023-02-27T00:40:41.874Z,0.76
2023-02-27T00:43:44.621Z,0.79
2023-02-27T00:46:47.574Z,0.85
2023-02-27T00:49:50.365Z,0.88
2023-02-27T00:52:53.389Z,0.89
2023-02-27T00:55:57.310Z,0.83
2023-02-27T00:59:00.401Z,0.83
2023-02-27T01:02:03.823Z,0.83
2023-02-27T01:05:07.294Z,0.81
2023-02-27T01:08:10.132Z,0.75
2023-02-27T01:11:13.024Z,0.79
2023-02-27T01:14:15.787Z,0.73
2023-02-27T01:17:21.577Z,0.76
2023-02-27T01:20:24.493Z,0.81
2023-02-27T01:23:27.304Z,0.83
2023-02-27T01:26:30.061Z,0.81
2023-02-27T01:29:32.931Z,0.85
2023-02-27T01:32:38.179Z,0.91
2023-02-27T01:35:41.006Z,0.97
2023-02-27T01:38:43.867Z,0.95
2023-02-27T01:41:46.857Z,1.09
2023-02-27T01:45:02.675Z,1.06
2023-02-27T01:48:34.687Z,1.02
2023-02-27T01:51:42.048Z,1.00
2023-02-27T01:54:44.895Z,0.88
2023-02-27T01:57:49.655Z,0.82
2023-02-27T02:00:52.876Z,0.76
2023-02-27T02:03:58.270Z,0.79
2023-02-27T02:07:06.195Z,0.75
2023-02-27T02:10:12.671Z,0.75
2023-02-27T02:13:15.917Z,0.92
2023-02-27T02:16:27.687Z,0.81
2023-02-27T02:19:52.233Z,0.74
2023-02-27T02:23:32.609Z,0.70
2023-02-27T02:26:38.049Z,0.69
2023-02-27T02:29:52.904Z,0.64
2023-02-27T02:33:04.657Z,0.59
2023-02-27T02:36:22.022Z,0.61
2023-02-27T02:39:42.023Z,0.52
2023-02-27T02:43:26.615Z,0.44
2023-02-27T02:46:47.874Z,0.46
2023-02-27T02:50:01.633Z,0.36
2023-02-27T02:53:13.385Z,0.46
2023-02-27T02:56:28.273Z,0.45
2023-02-27T02:59:34.304Z,0.34
2023-02-27T03:02:48.200Z,0.31
2023-02-27T03:06:23.396Z,0.32
2023-02-27T03:09:34.449Z,0.36
2023-02-27T03:12:40.988Z,0.23
2023-02-27T03:16:07.942Z,0.30
2023-02-27T03:19:21.310Z,0.21
2023-02-27T03:22:47.554Z,0.20
2023-02-27T03:25:51.821Z,0.12
2023-02-27T03:29:01.746Z,0.08
2023-02-27T03:32:29.599Z,0.07
2023-02-27T03:35:38.553Z,0.03
2023-02-27T03:38:48.116Z,0.01
2023-02-27T03:42:07.354Z,-0.10
2023-02-27T03:45:37.570Z,-0.15
2023-02-27T03:48:44.850Z,-0.22
2023-02-27T03:51:48.167Z,-0.11
2023-02-27T03:54:58.092Z,-0.11
2023-02-27T03:58:01.118Z,-0.16
2023-02-27T04:01:04.710Z,-0.09
2023-02-27T04:04:12.546Z,-0.13
2023-02-27T04:07:55.054Z,-0.05
2023-02-27T04:11:29.924Z,0.02
2023-02-27T04:14:38.792Z,0.06
2023-02-27T04:18:05.884Z,0.07
2023-02-27T04:21:18.510Z,0.06
2023-02-27T04:24:40.357Z,0.04
2023-02-27T04:27:51.804Z,0.05
2023-02-27T04:31:01.089Z,0.04
2023-02-27T04:34:29.720Z,-0.03
2023-02-27T04:37:46.684Z,0.00
2023-02-27T04:41:00.741Z,-0.01
2023-02-27T04:44:08.276Z,-0.03
2023-02-27T04:47:14.394Z,0.05
2023-02-27T04:50:23.070Z,0.06
2023-02-27T04:53:31.394Z,0.02
2023-02-27T04:56:40.915Z,0.10
2023-02-27T04:59:48.410Z,0.08
2023-02-27T05:03:09.403Z,0.08
2023-02-27T05:06:15.338Z,0.10
2023-02-27T05:09:31.691Z,0.13
2023-02-27T05:12:34.356Z,0.18
2023-02-27T05:15:43.831Z,0.20
2023-02-27T05:18:47.122Z,0.13
2023-02-27T05:22:00.536Z,0.15
2023-02-27T05:25:31.128Z,0.12
2023-02-27T05:28:42.324Z,0.24
2023-02-27T05:31:54.672Z,0.22
2023-02-27T05:34:57.468Z,0.16
2023-02-27T05:38:09.929Z,0.17
2023-02-27T05:41:18.237Z,0.21
2023-02-27T05:44:25.463Z,0.23
2023-02-27T05:47:32.141Z,0.20
2023-02-27T05:50:37.955Z,0.20
2023-02-27T05:53:46.300Z,0.23
2023-02-27T05:56:52.183Z,0.25
2023-02-27T06:00:21.431Z,0.30
2023-02-27T06:03:25.237Z,0.27
2023-02-27T06:06:30.474Z,0.35
2023-02-27T06:09:34.008Z,0.30
2023-02-27T06:12:36.821Z,0.32
2023-02-27T06:15:39.579Z,0.31
2023-02-27T06:18:42.434Z,0.13
2023-02-27T06:21:45.143Z,-0.03
2023-02-27T06:24:47.870Z,0.11
2023-02-27T06:27:50.745Z,0.21
2023-02-27T06:30:55.437Z,0.29
2023-02-27T06:33:58.277Z,0.30
2023-02-27T06:37:03.855Z,0.42
2023-02-27T06:40:11.683Z,0.41
2023-02-27T06:43:15.637Z,0.49
2023-02-27T06:46:18.533Z,0.55
2023-02-27T06:49:21.499Z,0.75
2023-02-27T06:52:24.257Z,0.77
2023-02-27T06:55:26.960Z,0.75
2023-02-27T06:58:29.728Z,0.63
2023-02-27T07:01:32.793Z,0.72
2023-02-27T07:04:35.674Z,1.00
2023-02-27T07:07:39.319Z,0.88
2023-02-27T07:10:47.326Z,0.92
2023-02-27T07:13:50.211Z,0.81
2023-02-27T07:16:54.195Z,1.11
2023-02-27T07:19:57.130Z,1.24
2023-02-27T07:22:59.871Z,1.23
2023-02-27T07:26:02.687Z,1.09
2023-02-27T07:29:06.100Z,1.04
2023-02-27T07:32:09.069Z,1.14
2023-02-27T07:35:12.369Z,1.28
2023-02-27T07:38:15.168Z,1.42
2023-02-27T07:41:30.020Z,1.62
2023-02-27T07:44:36.232Z,1.75
2023-02-27T07:47:38.985Z,1.71
2023-02-27T07:50:41.762Z,1.72
2023-02-27T07:53:44.778Z,1.52
2023-02-27T07:56:47.511Z,1.60
2023-02-27T07:59:50.337Z,1.82
2023-02-27T08:02:53.130Z,1.96
2023-02-27T08:05:55.845Z,1.80
2023-02-27T08:08:58.628Z,2.06
2023-02-27T08:12:03.084Z,1.89
2023-02-27T08:15:06.502Z,1.85
2023-02-27T08:18:09.414Z,1.81
2023-02-27T08:21:12.258Z,2.29
2023-02-27T08:24:15.127Z,2.23
2023-02-27T08:27:17.990Z,2.02
2023-02-27T08:30:21.018Z,2.37
2023-02-27T08:33:24.813Z,2.74
2023-02-27T08:36:27.974Z,2.60
2023-02-27T08:39:30.969Z,2.69
2023-02-27T08:42:34.455Z,2.37
2023-02-27T08:45:37.300Z,2.26
2023-02-27T08:48:42.794Z,2.83
2023-02-27T08:51:45.773Z,2.47
2023-02-27T08:54:48.636Z,3.12
2023-02-27T08:57:51.395Z,2.95
2023-02-27T09:00:54.869Z,2.94
2023-02-27T09:03:57.781Z,2.55
2023-02-27T09:07:00.593Z,2.62
2023-02-27T09:10:03.815Z,2.89
2023-02-27T09:13:06.809Z,2.96
2023-02-27T09:16:10.417Z,3.09
2023-02-27T09:19:14.559Z,3.68
2023-02-27T09:22:18.789Z,3.39
2023-02-27T09:25:21.522Z,3.86
2023-02-27T09:28:24.322Z,3.21
2023-02-27T09:31:32.207Z,3.86
2023-02-27T09:34:36.135Z,3.77
2023-02-27T09:37:39.459Z,3.68
2023-02-27T09:40:44.805Z,4.04
2023-02-27T09:43:51.636Z,3.68
2023-02-27T09:46:54.845Z,3.24
2023-02-27T09:50:06.402Z,3.96
2023-02-27T09:53:32.066Z,4.52
2023-02-27T09:56:56.996Z,3.82
2023-02-27T10:00:40.528Z,4.97
2023-02-27T10:03:43.498Z,5.26
2023-02-27T10:06:50.410Z,5.14
2023-02-27T10:10:14.461Z,4.71
2023-02-27T10:13:39.565Z,4.06
2023-02-27T10:16:43.279Z,4.91
2023-02-27T10:19:48.404Z,4.72
2023-02-27T10:22:54.556Z,5.99
2023-02-27T10:25:58.295Z,5.17
2023-02-27T10:29:15.544Z,5.81
2023-02-27T10:32:27.259Z,4.66
2023-02-27T10:35:36.181Z,5.91
2023-02-27T10:38:44.866Z,6.13
2023-02-27T10:41:48.921Z,5.49
2023-02-27T10:44:53.843Z,4.81
2023-02-27T10:47:59.081Z,4.55
2023-02-27T10:51:25.262Z,4.78
2023-02-27T10:54:30.732Z,4.25
2023-02-27T10:57:43.397Z,4.76
2023-02-27T11:00:59.389Z,4.18
2023-02-27T11:04:02.206Z,4.95
2023-02-27T11:07:09.242Z,5.79
2023-02-27T11:10:15.147Z,6.11
2023-02-27T11:13:23.355Z,6.17
2023-02-27T11:16:26.963Z,6.25
2023-02-27T11:19:34.214Z,5.13
2023-02-27T11:22:37.649Z,4.95
2023-02-27T11:25:40.551Z,5.44
2023-02-27T11:28:43.876Z,6.37
2023-02-27T11:31:55.982Z,6.43
2023-02-27T11:34:58.857Z,6.45
2023-02-27T11:38:07.642Z,6.52
2023-02-27T11:41:11.166Z,6.47
2023-02-27T11:44:34.589Z,6.49
2023-02-27T11:47:51.463Z,6.65
2023-02-27T11:51:12.306Z,7.06
2023-02-27T11:54:48.268Z,6.93
2023-02-27T11:57:58.904Z,6.76
2023-02-27T12:01:06.172Z,6.54
2023-02-27T12:04:29.072Z,6.53
2023-02-27T12:07:38.890Z,6.85
2023-02-27T12:11:12.397Z,6.79
2023-02-27T12:14:27.727Z,6.94
2023-02-27T12:17:38.910Z,7.12
2023-02-27T12:20:56.793Z,7.19
2023-02-27T12:24:10.317Z,6.95
2023-02-27T12:27:21.784Z,7.34
2023-02-27T12:30:28.252Z,7.52
2023-02-27T12:33:34.535Z,7.51
2023-02-27T12:36:38.504Z,7.20
2023-02-27T12:39:44.850Z,7.20
2023-02-27T12:43:08.184Z,7.12
2023-02-27T12:46:29.503Z,7.39
2023-02-27T12:49:44.200Z,7.26
2023-02-27T12:52:58.974Z,7.20
2023-02-27T12:56:10.231Z,7.35
2023-02-27T12:59:46.904Z,6.88
2023-02-27T13:02:52.313Z,6.84
2023-02-27T13:06:03.119Z,5.79
2023-02-27T13:09:40.135Z,6.16
2023-02-27T13:12:59.310Z,6.48
2023-02-27T13:16:25.984Z,6.49
2023-02-27T13:19:58.040Z,6.45
2023-02-27T13:23:18.876Z,6.58
2023-02-27T13:26:34.890Z,6.33
2023-02-27T13:29:41.619Z,5.99
2023-02-27T13:33:07.581Z,6.02
2023-02-27T13:36:13.069Z,6.04
2023-02-27T13:39:44.160Z,6.20
2023-02-27T13:42:47.036Z,5.94
2023-02-27T13:46:03.697Z,6.21
2023-02-27T13:49:10.737Z,6.26
2023-02-27T13:52:30.061Z,6.15
2023-02-27T13:55:37.861Z,5.65
2023-02-27T13:58:41.904Z,5.76
2023-02-27T14:01:57.791Z,6.04
2023-02-27T14:05:06.736Z,6.05
2023-02-27T14:08:20.964Z,5.02
2023-02-27T14:11:39.888Z,5.43
2023-02-27T14:14:46.257Z,5.41
2023-02-27T14:18:02.446Z,5.38
2023-02-27T14:21:12.604Z,5.21
2023-02-27T14:24:17.333Z,5.32
2023-02-27T14:27:49.338Z,4.60
2023-02-27T14:31:06.147Z,5.17
2023-02-27T14:34:15.531Z,5.41
2023-02-27T14:37:23.559Z,5.55
2023-02-27T14:40:34.180Z,5.62
2023-02-27T14:43:46.705Z,5.39
2023-02-27T14:46:50.475Z,5.40
2023-02-27T14:49:53.521Z,5.26
2023-02-27T14:52:56.329Z,5.25
2023-02-27T14:56:00.580Z,5.19
2023-02-27T14:59:04.941Z,5.01
2023-02-27T15:02:43.190Z,4.88
2023-02-27T15:05:48.022Z,4.42
2023-02-27T15:08:54.334Z,4.37
2023-02-27T15:12:04.049Z,4.72
2023-02-27T15:15:09.940Z,4.52
2023-02-27T15:18:14.551Z,4.77
2023-02-27T15:21:20.280Z,4.81
2023-02-27T15:24:26.172Z,4.83
2023-02-27T15:27:30.268Z,4.71
2023-02-27T15:30:33.399Z,4.26
2023-02-27T15:33:37.050Z,4.13
2023-02-27T15:36:46.976Z,3.93
2023-02-27T15:39:51.623Z,4.04
2023-02-27T15:42:55.381Z,4.36
2023-02-27T15:45:58.586Z,4.41
2023-02-27T15:49:01.803Z,4.33
2023-02-27T15:52:25.441Z,4.41
2023-02-27T15:55:32.149Z,4.35
2023-02-27T15:58:38.412Z,4.35
2023-02-27T16:01:41.928Z,4.29
2023-02-27T16:04:46.580Z,4.25
2023-02-27T16:07:50.378Z,4.24
2023-02-27T16:10:53.449Z,4.13
2023-02-27T16:13:57.887Z,4.14
2023-02-27T16:17:00.900Z,4.16
2023-02-27T16:20:41.487Z,4.08
2023-02-27T16:23:45.538Z,4.04
2023-02-27T16:26:52.119Z,4.05
2023-02-27T16:29:57.556Z,3.89
2023-02-27T16:33:02.052Z,3.87
2023-02-27T16:36:17.184Z,3.77
2023-02-27T16:39:20.232Z,3.62
2023-02-27T16:42:23.270Z,3.45
2023-02-27T16:45:28.735Z,3.25
2023-02-27T16:48:31.836Z,3.11
2023-02-27T16:51:35.000Z,3.09
2023-02-27T16:54:37.976Z,3.02
2023-02-27T16:57:40.922Z,2.88
2023-02-27T17:00:44.244Z,2.86
2023-02-27T17:03:47.478Z,2.81
2023-02-27T17:06:50.519Z,2.74
2023-02-27T17:09:53.647Z,2.66
2023-02-27T17:12:56.566Z,2.70
2023-02-27T17:16:00.059Z,2.73
2023-02-27T17:19:03.072Z,2.69
2023-02-27T17:22:06.612Z,2.78
2023-02-27T17:25:10.849Z,2.67
2023-02-27T17:28:13.648Z,2.63
2023-02-27T17:31:16.475Z,2.65
2023-02-27T17:34:20.615Z,2.73
2023-02-27T17:37:23.823Z,2.47
2023-02-27T17:40:27.479Z,2.34
2023-02-27T17:43:30.398Z,2.33
2023-02-27T17:46:33.585Z,2.23
2023-02-27T17:49:36.508Z,2.18
2023-02-27T17:52:40.076Z,2.16
2023-02-27T17:55:42.783Z,2.16
2023-02-27T17:58:45.706Z,1.98
2023-02-27T18:01:48.510Z,2.01
2023-02-27T18:04:53.804Z,2.11
2023-02-27T18:07:56.888Z,1.99
2023-02-27T18:11:00.252Z,2.01
2023-02-27T18:14:06.538Z,2.11
2023-02-27T18:17:12.694Z,2.27
2023-02-27T18:20:15.863Z,2.26
2023-02-27T18:23:19.664Z,2.45
2023-02-27T18:26:32.733Z,2.40
2023-02-27T18:29:36.910Z,2.25
2023-02-27T18:32:39.908Z,2.22
2023-02-27T18:35:44.175Z,1.97
2023-02-27T18:38:47.668Z,1.89
2023-02-27T18:41:52.037Z,1.90
2023-02-27T18:44:56.236Z,1.96
2023-02-27T18:47:59.351Z,2.02
2023-02-27T18:51:05.952Z,2.04
2023-02-27T18:54:13.015Z,2.11
2023-02-27T18:57:16.396Z,2.20
2023-02-27T19:00:21.779Z,2.08
2023-02-27T19:03:25.224Z,2.03
2023-02-27T19:06:28.773Z,2.04
2023-02-27T19:09:32.918Z,2.11
2023-02-27T19:12:36.188Z,1.92
2023-02-27T19:15:39.611Z,2.07
2023-02-27T19:18:42.923Z,2.02
2023-02-27T19:21:48.083Z,2.08
2023-02-27T19:24:51.178Z,2.16
2023-02-27T19:27:55.684Z,2.08
2023-02-27T19:30:58.938Z,2.19
2023-02-27T19:34:03.209Z,2.32
2023-02-27T19:37:06.481Z,2.14
2023-02-27T19:40:11.113Z,2.11
2023-02-27T19:43:15.479Z,2.18
2023-02-27T19:46:24.964Z,2.07
2023-02-27T19:49:28.089Z,2.08
2023-02-27T19:52:31.401Z,2.18
2023-02-27T19:55:34.736Z,2.10
2023-02-27T19:58:39.466Z,2.21
2023-02-27T20:01:42.593Z,2.10
2023-02-27T20:04:45.809Z,2.26
2023-02-27T20:07:48.713Z,2.51
2023-02-27T20:10:59.589Z,2.51
2023-02-27T20:14:02.889Z,2.62
2023-02-27T20:17:06.544Z,2.78
2023-02-27T20:20:10.400Z,2.81
2023-02-27T20:23:15.529Z,2.86
2023-02-27T20:26:24.053Z,2.93
2023-02-27T20:29:28.412Z,2.94
2023-02-27T20:32:31.361Z,2.91
2023-02-27T20:35:37.946Z,2.96
2023-02-27T20:38:41.504Z,2.99
2023-02-27T20:41:45.127Z,3.06
2023-02-27T20:44:49.204Z,3.12
2023-02-27T20:47:52.233Z,3.12
2023-02-27T20:50:55.467Z,3.01
2023-02-27T20:54:00.196Z,3.10
2023-02-27T20:57:04.310Z,3.11
2023-02-27T21:00:11.736Z,3.03
2023-02-27T21:03:18.022Z,3.03
2023-02-27T21:06:21.296Z,3.01
2023-02-27T21:09:24.016Z,3.06
2023-02-27T21:12:26.758Z,3.05
2023-02-27T21:15:31.314Z,2.85
2023-02-27T21:18:34.272Z,2.75
2023-02-27T21:21:37.416Z,2.80
2023-02-27T21:24:40.203Z,2.87
2023-02-27T21:27:42.926Z,2.88
2023-02-27T21:30:45.802Z,2.94
2023-02-27T21:33:49.911Z,3.00
2023-02-27T21:36:53.772Z,3.08
2023-02-27T21:39:57.408Z,3.22
2023-02-27T21:43:00.207Z,3.18
2023-02-27T21:46:13.502Z,3.16
2023-02-27T21:49:22.721Z,3.05
2023-02-27T21:52:25.530Z,3.05
2023-02-27T21:55:28.329Z,2.98
2023-02-27T21:58:31.515Z,2.97
2023-02-27T22:01:34.846Z,3.02
2023-02-27T22:04:37.573Z,3.05
2023-02-27T22:07:40.342Z,3.06
2023-02-27T22:10:46.024Z,3.08
2023-02-27T22:13:49.149Z,2.95
2023-02-27T22:16:51.861Z,2.85
2023-02-27T22:19:54.810Z,2.78
2023-02-27T22:22:57.640Z,2.59
2023-02-27T22:26:13.020Z,2.49
2023-02-27T22:29:17.173Z,2.52
2023-02-27T22:32:20.119Z,2.39
2023-02-27T22:35:23.584Z,2.32
2023-02-27T22:38:26.703Z,2.19
2023-02-27T22:41:35.753Z,2.05
2023-02-27T22:44:38.567Z,2.07
2023-02-27T22:47:41.389Z,1.99
2023-02-27T22:50:44.108Z,1.94
2023-02-27T22:53:47.020Z,1.92
2023-02-27T22:56:54.713Z,2.04
2023-02-27T22:59:58.638Z,2.01
2023-02-27T23:03:01.358Z,1.95
2023-02-27T23:06:06.250Z,1.91
2023-02-27T23:09:14.756Z,1.98
2023-02-27T23:12:17.529Z,1.92
2023-02-27T23:15:20.354Z,1.64
2023-02-27T23:18:23.125Z,1.62
2023-02-27T23:21:32.012Z,1.51
2023-02-27T23:24:35.003Z,1.47
2023-02-27T23:27:38.640Z,1.40
2023-02-27T23:30:41.458Z,1.34
2023-02-27T23:33:44.290Z,1.48
2023-02-27T23:36:47.033Z,1.39
2023-02-27T23:39:49.714Z,1.41
2023-02-27T23:42:52.720Z,1.29
2023-02-27T23:45:55.652Z,1.09
2023-02-27T23:48:59.621Z,1.04
2023-02-27T23:52:03.412Z,0.88
2023-02-27T23:55:06.903Z,0.93
2023-02-27T23:58:11.281Z,0.98
